Tatoosh Island, Washington
Current Conditions -  °F | °C
As of 10:53 AM on Friday 28 Nov 2014 (Local Time) from KUIL Reporting Station
Few Clouds Few Clouds  
Wind Chill: 45°   Ceiling: Unl
Heat Index: 45°   Visibility: 7mi
Dew Point: 44°   Wind: 0mph
Humidity: 97%   Direction: NA
Pressure: 29.55"   Gusts: NA
Location:  48.3685°N, 124.623°W
Report Text: KUIL 281853Z AUTO 00000KT 7SM FEW120 07/07 A2955 RMK AO2 SLP007 T00720067
Loading
Personal Weather Stations






























Interactive Weather Map New forecast layout! Learn more

10-Day Weather Forecast

Advertisements
Track Severe Weather on mobile